createdAt,value
2022-08-20T00:01:08.984Z,59.94
2022-08-20T00:06:06.348Z,60.97
2022-08-20T00:08:34.420Z,61.09
2022-08-20T00:11:05.270Z,61.21
2022-08-20T00:13:37.229Z,61.27
2022-08-20T00:16:06.289Z,61.19
2022-08-20T00:18:36.953Z,61.16
2022-08-20T00:21:08.443Z,60.90
2022-08-20T00:23:37.549Z,60.99
2022-08-20T00:26:07.492Z,60.78
2022-08-20T00:28:35.547Z,61.21
2022-08-20T00:31:05.313Z,60.99
2022-08-20T00:33:33.204Z,61.12
2022-08-20T00:40:59.760Z,61.47
2022-08-20T00:43:34.317Z,61.23
2022-08-20T00:46:06.197Z,61.40
2022-08-20T00:48:36.609Z,61.41
2022-08-20T00:53:37.475Z,61.59
2022-08-20T00:56:07.177Z,61.43
2022-08-20T00:58:37.983Z,61.37
2022-08-20T01:01:07.298Z,61.57
2022-08-20T01:03:35.673Z,61.72
2022-08-20T01:06:03.550Z,61.48
2022-08-20T01:08:31.450Z,61.64
2022-08-20T01:11:09.925Z,61.40
2022-08-20T01:13:40.367Z,61.71
2022-08-20T01:16:16.515Z,61.52
2022-08-20T01:18:48.299Z,61.57
2022-08-20T01:21:18.834Z,61.35
2022-08-20T01:24:00.670Z,61.34
2022-08-20T01:29:30.420Z,61.66
2022-08-20T01:32:01.521Z,61.54
2022-08-20T01:34:29.981Z,61.92
2022-08-20T01:36:59.280Z,61.66
2022-08-20T01:39:31.962Z,61.66
2022-08-20T01:42:08.558Z,61.79
2022-08-20T01:44:40.001Z,61.70
2022-08-20T01:49:44.061Z,62.04
2022-08-20T01:54:37.304Z,61.99
2022-08-20T01:57:08.254Z,62.22
2022-08-20T02:02:20.314Z,62.51
2022-08-20T02:04:48.427Z,62.38
2022-08-20T02:07:19.500Z,62.39
2022-08-20T02:09:47.804Z,62.33
2022-08-20T02:12:16.664Z,62.27
2022-08-20T02:14:46.169Z,62.36
2022-08-20T02:17:15.162Z,62.58
2022-08-20T02:19:48.280Z,62.47
2022-08-20T02:24:41.448Z,62.72
2022-08-20T02:27:09.420Z,62.76
2022-08-20T02:29:37.390Z,62.78
2022-08-20T02:32:32.581Z,63.11
2022-08-20T02:34:55.805Z,63.16
2022-08-20T02:37:23.603Z,63.53
2022-08-20T02:39:51.483Z,63.49
2022-08-20T02:42:19.754Z,63.73
2022-08-20T02:44:47.740Z,63.54
2022-08-20T02:47:17.271Z,63.71
2022-08-20T02:49:45.286Z,63.65
2022-08-20T02:52:14.635Z,63.77
2022-08-20T02:54:42.534Z,64.00
2022-08-20T02:57:14.137Z,63.97
2022-08-20T02:59:42.188Z,64.14
2022-08-20T03:02:10.081Z,63.91
2022-08-20T03:04:38.022Z,63.98
2022-08-20T03:07:07.317Z,64.09
2022-08-20T03:09:36.670Z,63.99
2022-08-20T03:12:04.939Z,64.13
2022-08-20T03:14:32.857Z,64.41
2022-08-20T03:17:00.838Z,64.10
2022-08-20T03:19:29.004Z,64.14
2022-08-20T03:21:57.307Z,64.35
2022-08-20T03:24:25.275Z,64.46
2022-08-20T03:26:54.644Z,64.31
2022-08-20T03:29:22.582Z,64.74
2022-08-20T03:31:50.492Z,64.75
2022-08-20T03:34:18.528Z,64.70
2022-08-20T03:36:46.454Z,65.06
2022-08-20T03:39:14.409Z,65.04
2022-08-20T03:41:42.341Z,64.87
2022-08-20T03:44:11.680Z,64.91
2022-08-20T03:46:40.274Z,64.93
2022-08-20T03:49:08.190Z,64.77
2022-08-20T03:51:51.478Z,64.69
2022-08-20T03:54:24.067Z,64.57
2022-08-20T03:59:23.568Z,64.61
2022-08-20T04:01:52.410Z,64.62
2022-08-20T04:04:20.741Z,64.82
2022-08-20T04:06:48.960Z,64.82
2022-08-20T04:09:17.234Z,64.83
2022-08-20T04:14:11.271Z,65.03
2022-08-20T04:16:41.472Z,64.95
2022-08-20T04:19:09.541Z,65.09
2022-08-20T04:21:38.160Z,64.90
2022-08-20T04:24:07.113Z,65.10
2022-08-20T04:29:00.391Z,65.17
2022-08-20T04:31:33.801Z,65.11
2022-08-20T04:34:04.531Z,65.29
2022-08-20T04:36:32.653Z,65.21
2022-08-20T04:39:00.552Z,65.35
2022-08-20T04:41:27.526Z,65.39
2022-08-20T04:43:57.317Z,65.32
2022-08-20T04:49:10.825Z,65.55
2022-08-20T04:51:39.053Z,65.48
2022-08-20T04:54:07.419Z,66.06
2022-08-20T04:56:38.965Z,65.78
2022-08-20T04:59:08.283Z,65.99
2022-08-20T05:01:36.731Z,66.32
2022-08-20T05:04:05.205Z,66.22
2022-08-20T05:06:34.603Z,66.28
2022-08-20T05:09:02.572Z,66.34
2022-08-20T05:11:36.011Z,66.44
2022-08-20T05:14:08.229Z,66.62
2022-08-20T05:16:39.220Z,66.50
2022-08-20T05:19:08.928Z,66.52
2022-08-20T05:21:38.655Z,66.66
2022-08-20T05:24:06.825Z,66.31
2022-08-20T05:29:17.709Z,66.69
2022-08-20T05:31:45.591Z,66.81
2022-08-20T05:34:13.847Z,66.67
2022-08-20T05:36:46.857Z,66.93
2022-08-20T05:39:16.941Z,66.78
2022-08-20T05:41:44.891Z,67.00
2022-08-20T05:44:15.208Z,67.09
2022-08-20T05:46:45.550Z,66.92
2022-08-20T05:49:16.440Z,67.09
2022-08-20T05:51:46.350Z,67.06
2022-08-20T05:54:15.388Z,67.44
2022-08-20T05:59:10.533Z,67.12
2022-08-20T06:01:40.100Z,67.19
2022-08-20T06:04:27.028Z,67.38
2022-08-20T06:06:58.616Z,67.26
2022-08-20T06:09:31.678Z,67.15
2022-08-20T06:12:01.772Z,66.91
2022-08-20T06:14:30.587Z,66.89
2022-08-20T06:17:04.727Z,66.88
2022-08-20T06:19:33.949Z,66.87
2022-08-20T06:30:02.780Z,66.47
2022-08-20T06:35:19.772Z,66.62
2022-08-20T06:54:18.125Z,66.00
2022-08-20T07:07:49.599Z,65.93
2022-08-20T07:10:18.759Z,65.90
2022-08-20T07:12:50.084Z,65.97
2022-08-20T07:50:58.969Z,65.34
2022-08-20T07:53:28.602Z,64.65
2022-08-20T07:55:59.590Z,64.58
2022-08-20T07:58:27.688Z,64.33
2022-08-20T08:01:01.657Z,64.18
2022-08-20T08:03:40.825Z,63.90
2022-08-20T08:06:29.046Z,64.05
2022-08-20T08:09:01.078Z,64.06
2022-08-20T08:11:29.735Z,63.99
2022-08-20T08:13:57.713Z,64.01
2022-08-20T08:16:25.618Z,63.93
2022-08-20T08:18:56.882Z,63.62
2022-08-20T08:21:26.345Z,63.50
2022-08-20T08:23:54.157Z,63.40
2022-08-20T08:26:22.373Z,63.43
2022-08-20T08:28:50.786Z,62.86
2022-08-20T08:31:18.593Z,62.12
2022-08-20T08:33:46.433Z,61.81
2022-08-20T08:36:16.299Z,61.21
2022-08-20T08:38:47.032Z,61.14
2022-08-20T08:41:20.567Z,61.02
2022-08-20T08:43:53.309Z,60.93
2022-08-20T08:46:27.534Z,60.58
2022-08-20T08:48:58.889Z,59.67
2022-08-20T08:51:33.943Z,59.32
2022-08-20T08:54:06.919Z,58.93
2022-08-20T08:56:36.108Z,58.16
2022-08-20T08:59:07.722Z,57.36
2022-08-20T09:04:31.772Z,55.45
2022-08-20T09:07:02.795Z,54.52
2022-08-20T09:09:36.869Z,53.91
2022-08-20T09:12:07.050Z,52.68
2022-08-20T09:14:35.046Z,51.16
2022-08-20T09:17:03.026Z,49.56
2022-08-20T09:19:31.897Z,48.24
2022-08-20T09:22:00.012Z,47.35
2022-08-20T09:24:27.866Z,45.75
2022-08-20T09:29:35.956Z,43.45
2022-08-20T09:32:08.471Z,43.02
2022-08-20T09:34:38.344Z,42.86
2022-08-20T09:37:06.162Z,42.84
2022-08-20T09:39:33.986Z,42.51
2022-08-20T09:42:09.315Z,42.70
2022-08-20T09:44:38.744Z,42.13
2022-08-20T09:47:07.157Z,41.98
2022-08-20T09:49:36.777Z,41.29
2022-08-20T09:52:07.874Z,41.19
2022-08-20T09:54:37.143Z,41.94
2022-08-20T09:57:08.553Z,42.29
2022-08-20T09:59:38.541Z,42.38
2022-08-20T10:02:06.609Z,43.24
2022-08-20T10:04:34.498Z,43.15
2022-08-20T10:07:02.286Z,43.41
2022-08-20T10:09:30.066Z,43.40
2022-08-20T10:11:57.840Z,43.55
2022-08-20T10:14:26.079Z,43.42
2022-08-20T10:16:59.888Z,43.48
2022-08-20T10:19:30.216Z,44.37
2022-08-20T10:21:59.591Z,44.03
2022-08-20T10:24:28.114Z,43.13
2022-08-20T10:26:58.680Z,42.59
2022-08-20T10:29:27.842Z,43.07
2022-08-20T10:31:57.942Z,42.20
2022-08-20T10:34:26.481Z,41.78
2022-08-20T10:36:54.327Z,41.18
2022-08-20T10:39:22.363Z,40.94
2022-08-20T10:41:50.155Z,39.82
2022-08-20T10:44:18.724Z,39.46
2022-08-20T10:46:48.048Z,39.87
2022-08-20T10:49:17.226Z,39.20
2022-08-20T10:51:45.111Z,38.72
2022-08-20T10:54:15.568Z,38.97
2022-08-20T10:56:43.822Z,39.20
2022-08-20T10:59:11.718Z,37.76
2022-08-20T11:01:39.741Z,37.26
2022-08-20T11:04:07.877Z,37.39
2022-08-20T11:06:37.122Z,37.58
2022-08-20T11:09:05.154Z,37.82
2022-08-20T11:11:37.567Z,37.81
2022-08-20T11:14:05.506Z,37.30
2022-08-20T11:16:33.418Z,36.99
2022-08-20T11:19:01.349Z,36.58
2022-08-20T11:21:29.200Z,36.54
2022-08-20T11:24:02.622Z,34.81
2022-08-20T11:26:30.967Z,33.36
2022-08-20T11:28:58.795Z,34.47
2022-08-20T11:31:27.082Z,35.79
2022-08-20T11:33:54.876Z,34.30
2022-08-20T11:36:26.361Z,33.81
2022-08-20T11:38:54.617Z,33.71
2022-08-20T11:41:23.756Z,33.39
2022-08-20T11:44:17.579Z,32.50
2022-08-20T11:46:39.644Z,32.46
2022-08-20T11:49:07.629Z,32.60
2022-08-20T11:51:48.991Z,31.96
2022-08-20T11:54:18.062Z,32.65
2022-08-20T11:56:47.662Z,32.08
2022-08-20T11:59:15.535Z,32.53
2022-08-20T12:02:01.916Z,32.63
2022-08-20T12:04:33.641Z,33.24
2022-08-20T12:07:09.525Z,33.53
2022-08-20T12:09:50.793Z,32.93
2022-08-20T12:12:23.344Z,32.00
2022-08-20T12:14:51.845Z,32.02
2022-08-20T12:17:23.904Z,30.66
2022-08-20T12:19:56.661Z,30.03
2022-08-20T12:22:25.595Z,29.02
2022-08-20T12:24:53.756Z,29.25
2022-08-20T12:27:24.690Z,29.00
2022-08-20T12:29:54.761Z,28.33
2022-08-20T12:32:23.724Z,27.52
2022-08-20T12:34:51.838Z,27.87
2022-08-20T12:37:21.457Z,27.21
2022-08-20T12:39:52.714Z,26.75
2022-08-20T12:42:22.744Z,26.28
2022-08-20T12:44:50.957Z,25.80
2022-08-20T12:47:29.244Z,25.03
2022-08-20T12:50:00.444Z,25.14
2022-08-20T12:55:14.425Z,21.13
2022-08-20T12:57:46.378Z,21.61
2022-08-20T13:00:16.610Z,21.12
2022-08-20T13:02:44.618Z,20.25
2022-08-20T13:05:14.378Z,19.99
2022-08-20T13:07:43.885Z,19.74
2022-08-20T13:10:14.556Z,19.13
2022-08-20T13:12:43.726Z,18.68
2022-08-20T13:15:12.414Z,18.82
2022-08-20T13:17:53.249Z,18.21
2022-08-20T13:20:21.222Z,18.06
2022-08-20T13:22:49.038Z,19.19
2022-08-20T13:25:21.346Z,18.47
2022-08-20T13:27:51.068Z,18.91
2022-08-20T13:30:20.961Z,18.52
2022-08-20T13:32:49.423Z,19.30
2022-08-20T13:35:17.868Z,18.28
2022-08-20T13:37:45.669Z,18.36
2022-08-20T13:40:13.972Z,18.40
2022-08-20T13:45:25.815Z,19.19
2022-08-20T13:47:56.123Z,19.47
2022-08-20T13:50:26.495Z,19.41
2022-08-20T13:52:54.566Z,18.98
2022-08-20T13:55:26.677Z,19.14
2022-08-20T13:57:56.759Z,18.91
2022-08-20T14:00:31.665Z,18.71
2022-08-20T14:03:00.292Z,18.68
2022-08-20T14:05:28.302Z,19.11
2022-08-20T14:07:56.244Z,18.90
2022-08-20T14:10:31.282Z,18.44
2022-08-20T14:15:43.636Z,18.85
2022-08-20T14:18:11.618Z,18.92
2022-08-20T14:20:39.596Z,18.42
2022-08-20T14:23:08.980Z,19.07
2022-08-20T14:28:20.998Z,18.58
2022-08-20T14:30:52.567Z,18.92
2022-08-20T14:33:21.534Z,18.73
2022-08-20T14:35:49.406Z,18.85
2022-08-20T14:38:17.816Z,18.58
2022-08-20T14:40:45.781Z,18.86
2022-08-20T14:45:53.605Z,18.81
2022-08-20T14:48:21.486Z,18.39
2022-08-20T14:50:49.311Z,18.26
2022-08-20T14:53:17.151Z,17.97
2022-08-20T14:55:45.034Z,18.72
2022-08-20T14:58:15.057Z,18.79
2022-08-20T15:00:44.349Z,18.81
2022-08-20T15:03:22.841Z,18.20
2022-08-20T15:05:50.906Z,18.34
2022-08-20T15:08:18.762Z,18.46
2022-08-20T15:13:42.354Z,17.43
2022-08-20T15:16:10.170Z,17.81
2022-08-20T15:18:38.057Z,17.46
2022-08-20T15:21:05.912Z,17.36
2022-08-20T15:23:38.346Z,17.21
2022-08-20T15:26:07.110Z,17.46
2022-08-20T15:28:34.975Z,17.60
2022-08-20T15:31:10.495Z,17.39
2022-08-20T15:33:38.610Z,17.47
2022-08-20T15:36:07.929Z,17.50
2022-08-20T15:38:41.241Z,17.33
2022-08-20T15:41:09.084Z,17.76
2022-08-20T15:43:36.956Z,17.73
2022-08-20T15:46:07.754Z,17.98
2022-08-20T15:48:38.037Z,18.29
2022-08-20T15:51:35.292Z,18.69
2022-08-20T15:54:07.061Z,18.94
2022-08-20T15:57:00.811Z,19.42
2022-08-20T15:59:46.261Z,19.48
2022-08-20T16:05:15.669Z,19.94
2022-08-20T16:08:01.598Z,20.30
2022-08-20T16:10:37.670Z,21.43
2022-08-20T16:13:13.305Z,20.87
2022-08-20T16:15:49.307Z,21.69
2022-08-20T16:18:24.405Z,21.29
2022-08-20T16:20:58.796Z,21.05
2022-08-20T16:23:33.633Z,21.54
2022-08-20T16:26:15.061Z,21.27
2022-08-20T16:28:53.438Z,21.90
2022-08-20T16:31:26.204Z,22.29
2022-08-20T16:34:04.642Z,22.53
2022-08-20T16:37:03.071Z,22.54
2022-08-20T16:39:41.737Z,22.34
2022-08-20T16:42:11.662Z,22.59
2022-08-20T16:44:43.316Z,22.65
2022-08-20T16:47:17.211Z,22.86
2022-08-20T16:49:55.080Z,22.85
2022-08-20T16:52:37.956Z,23.64
2022-08-20T16:55:06.381Z,23.56
2022-08-20T16:57:34.174Z,23.93
2022-08-20T17:00:23.867Z,23.85
2022-08-20T17:02:53.913Z,24.17
2022-08-20T17:05:23.003Z,24.26
2022-08-20T17:07:54.803Z,23.79
2022-08-20T17:10:29.041Z,24.92
2022-08-20T17:12:59.770Z,24.68
2022-08-20T17:15:30.914Z,25.41
2022-08-20T17:18:10.665Z,24.83
2022-08-20T17:20:45.893Z,24.59
2022-08-20T17:23:18.982Z,24.41
2022-08-20T17:28:34.535Z,25.10
2022-08-20T17:31:20.938Z,25.90
2022-08-20T17:34:14.479Z,25.83
2022-08-20T17:39:25.054Z,26.75
2022-08-20T17:44:32.730Z,27.62
2022-08-20T17:47:03.146Z,27.59
2022-08-20T17:49:38.305Z,27.77
2022-08-20T17:52:13.857Z,28.11
2022-08-20T17:54:45.517Z,28.04
2022-08-20T17:57:15.743Z,28.17
2022-08-20T18:00:01.089Z,28.78
2022-08-20T18:02:30.964Z,28.91
2022-08-20T18:04:58.790Z,29.40
2022-08-20T18:07:31.956Z,29.75
2022-08-20T18:10:05.026Z,30.20
2022-08-20T18:12:37.861Z,30.15
2022-08-20T18:15:12.643Z,30.41
2022-08-20T18:18:08.432Z,31.41
2022-08-20T18:20:50.274Z,31.70
2022-08-20T18:23:29.638Z,32.33
2022-08-20T18:26:03.314Z,32.97
2022-08-20T18:28:38.401Z,33.81
2022-08-20T18:31:10.416Z,33.88
2022-08-20T18:33:42.000Z,34.34
2022-08-20T18:36:13.720Z,34.79
2022-08-20T18:38:43.508Z,35.51
2022-08-20T18:41:14.697Z,35.85
2022-08-20T18:46:24.531Z,36.53
2022-08-20T18:48:59.059Z,36.99
2022-08-20T18:51:37.594Z,36.97
2022-08-20T18:54:05.935Z,37.41
2022-08-20T18:56:38.697Z,37.58
2022-08-20T18:59:14.410Z,37.86
2022-08-20T19:01:44.679Z,38.35
2022-08-20T19:04:32.602Z,38.47
2022-08-20T19:07:04.972Z,38.83
2022-08-20T19:09:47.582Z,39.01
2022-08-20T19:12:34.422Z,39.87
2022-08-20T19:15:14.002Z,40.15
2022-08-20T19:18:00.775Z,40.14
2022-08-20T19:20:32.344Z,40.42
2022-08-20T19:23:05.839Z,40.19
2022-08-20T19:25:36.551Z,40.67
2022-08-20T19:28:09.417Z,41.04
2022-08-20T19:30:40.171Z,41.05
2022-08-20T19:33:10.653Z,41.13
2022-08-20T19:35:38.890Z,41.61
2022-08-20T19:38:17.645Z,41.85
2022-08-20T19:40:46.183Z,42.04
2022-08-20T19:43:23.542Z,42.11
2022-08-20T19:46:07.499Z,42.07
2022-08-20T19:48:49.325Z,42.35
2022-08-20T19:51:27.689Z,42.56
2022-08-20T19:53:55.854Z,42.81
2022-08-20T19:56:26.475Z,42.73
2022-08-20T19:59:02.899Z,42.75
2022-08-20T20:01:31.768Z,43.20
2022-08-20T20:04:03.729Z,43.27
2022-08-20T20:06:34.872Z,43.26
2022-08-20T20:09:07.494Z,43.51
2022-08-20T20:11:37.675Z,43.54
2022-08-20T20:14:08.690Z,43.58
2022-08-20T20:16:38.329Z,43.85
2022-08-20T20:19:28.093Z,43.74
2022-08-20T20:22:23.717Z,44.01
2022-08-20T20:25:03.783Z,43.90
2022-08-20T20:27:33.060Z,44.04
2022-08-20T20:30:03.950Z,43.99
2022-08-20T20:32:33.872Z,43.95
2022-08-20T20:35:05.540Z,44.03
2022-08-20T20:37:49.202Z,44.08
2022-08-20T20:40:25.395Z,44.04
2022-08-20T20:43:02.902Z,44.20
2022-08-20T20:48:21.263Z,44.38
2022-08-20T20:50:51.103Z,44.53
2022-08-20T20:53:31.446Z,44.58
2022-08-20T20:56:31.540Z,44.57
2022-08-20T20:59:05.333Z,44.92
2022-08-20T21:01:48.767Z,45.32
2022-08-20T21:04:19.641Z,45.72
2022-08-20T21:06:48.031Z,45.68
2022-08-20T21:09:16.641Z,45.93
2022-08-20T21:11:44.550Z,46.18
2022-08-20T21:14:12.386Z,46.24
2022-08-20T21:19:22.003Z,46.25
2022-08-20T21:21:49.815Z,46.37
2022-08-20T21:24:17.654Z,46.77
2022-08-20T21:27:01.544Z,46.52
2022-08-20T21:29:32.629Z,46.77
2022-08-20T21:34:45.587Z,46.47
2022-08-20T21:37:14.317Z,46.71
2022-08-20T21:39:42.650Z,46.70
2022-08-20T21:42:28.694Z,47.18
2022-08-20T21:44:57.837Z,47.16
2022-08-20T21:47:26.533Z,47.60
2022-08-20T21:49:56.325Z,47.71
2022-08-20T21:52:24.124Z,47.84
2022-08-20T21:54:53.249Z,48.03
2022-08-20T21:57:24.460Z,48.25
2022-08-20T21:59:53.109Z,48.08
2022-08-20T22:02:21.793Z,48.39
2022-08-20T22:04:53.876Z,48.04
2022-08-20T22:07:31.201Z,48.29
2022-08-20T22:09:59.134Z,48.51
2022-08-20T22:12:27.705Z,48.23
2022-08-20T22:14:55.658Z,48.64
2022-08-20T22:17:23.847Z,48.54
2022-08-20T22:19:51.755Z,48.62
2022-08-20T22:22:26.028Z,48.74
2022-08-20T22:24:53.947Z,49.00
2022-08-20T22:27:21.779Z,49.19
2022-08-20T22:32:35.137Z,49.56
2022-08-20T22:35:20.256Z,49.83
2022-08-20T22:37:49.464Z,49.79
2022-08-20T22:40:17.376Z,49.90
2022-08-20T22:42:45.355Z,50.34
2022-08-20T22:45:14.885Z,50.07
2022-08-20T22:47:44.290Z,50.51
2022-08-20T22:50:13.950Z,50.61
2022-08-20T22:52:43.493Z,50.79
2022-08-20T22:55:13.149Z,50.95
2022-08-20T22:57:41.206Z,50.92
2022-08-20T23:00:13.599Z,50.88
2022-08-20T23:02:42.762Z,51.33
2022-08-20T23:05:15.266Z,51.61
2022-08-20T23:07:42.960Z,51.61
2022-08-20T23:10:13.438Z,51.84
2022-08-20T23:12:41.722Z,51.77
2022-08-20T23:15:10.563Z,52.25
2022-08-20T23:20:20.929Z,52.62
2022-08-20T23:22:48.728Z,53.00
2022-08-20T23:25:18.128Z,53.28
2022-08-20T23:27:49.450Z,53.46
2022-08-20T23:30:19.219Z,53.67
2022-08-20T23:32:47.257Z,53.59
2022-08-20T23:35:15.588Z,53.76
2022-08-20T23:37:46.171Z,54.25
2022-08-20T23:40:15.737Z,54.44
2022-08-20T23:42:45.328Z,54.13
2022-08-20T23:45:13.976Z,54.41
2022-08-20T23:47:42.042Z,54.48
2022-08-20T23:50:13.065Z,54.76
2022-08-20T23:52:41.192Z,54.82
2022-08-20T23:55:10.185Z,54.52
